Time;durP1;ratioP1;P1;durP2;ratioP2;P2;SDS_P1;SDS_P2;PMS_P1;PMS_P2;Temp;Humidity;BMP_temperature;BMP_pressure;BME280_temperature;BME280_humidity;BME280_pressure;Samples;Min_cycle;Max_cycle;Signal;HPM_P1;HPM_P2
2022/11/07 00:01:27;;;;;;;6.93;3.50;;;;;;;;;;5025480;28;20170;-70
2022/11/07 00:03:53;;;;;;;28.60;5.77;;;;;;;;;;5025627;28;20237;-70
2022/11/07 00:06:18;;;;;;;4.67;3.90;;;;;;;;;;5025751;28;20593;-69
2022/11/07 00:08:44;;;;;;;6.07;3.87;;;;;;;;;;5029542;28;20194;-69
2022/11/07 00:11:09;;;;;;;9.83;4.07;;;;;;;;;;5030190;28;20167;-69
2022/11/07 00:13:34;;;;;;;7.80;3.70;;;;;;;;;;5023493;28;20244;-70
2022/11/07 00:16:01;;;;;;;9.47;5.17;;;;;;;;;;5029186;28;20170;-70
2022/11/07 00:18:26;;;;;;;5.07;3.00;;;;;;;;;;5027539;28;20189;-70
2022/11/07 00:20:51;;;;;;;8.40;3.73;;;;;;;;;;5024930;28;20174;-68
2022/11/07 00:23:16;;;;;;;9.13;3.30;;;;;;;;;;5029933;28;20226;-68
2022/11/07 00:25:42;;;;;;;6.07;2.97;;;;;;;;;;5027533;28;20191;-67
2022/11/07 00:28:07;;;;;;;7.03;3.50;;;;;;;;;;5029945;28;20688;-68
2022/11/07 00:30:32;;;;;;;8.03;3.43;;;;;;;;;;5030210;28;20182;-71
2022/11/07 00:32:57;;;;;;;6.53;3.63;;;;;;;;;;5024402;28;20540;-68
2022/11/07 00:35:22;;;;;;;10.00;3.37;;;;;;;;;;5027398;28;20241;-68
2022/11/07 00:37:48;;;;;;;10.57;3.33;;;;;;;;;;5029725;28;20178;-69
2022/11/07 00:40:13;;;;;;;7.33;3.13;;;;;;;;;;5026754;28;20547;-68
2022/11/07 00:42:38;;;;;;;8.90;3.50;;;;;;;;;;5021880;28;20228;-68
2022/11/07 00:45:03;;;;;;;6.67;3.17;;;;;;;;;;5028034;28;20205;-69
2022/11/07 00:47:28;;;;;;;6.30;2.97;;;;;;;;;;5023800;28;20190;-70
2022/11/07 00:49:54;;;;;;;7.33;3.33;;;;;;;;;;5024677;28;20647;-68
2022/11/07 00:52:19;;;;;;;6.53;3.07;;;;;;;;;;5025965;28;20193;-68
2022/11/07 00:54:44;;;;;;;7.23;3.37;;;;;;;;;;5026756;28;20186;-68
2022/11/07 00:57:09;;;;;;;4.93;3.20;;;;;;;;;;5031794;28;20612;-68
2022/11/07 00:59:35;;;;;;;5.80;3.03;;;;;;;;;;5029338;28;20177;-68
2022/11/07 01:02:00;;;;;;;4.87;3.77;;;;;;;;;;5027731;28;20162;-68
2022/11/07 01:07:09;;;;;;;8.60;3.30;;;;;;;;;;5024399;28;20268;-68
2022/11/07 01:09:34;;;;;;;6.47;2.87;;;;;;;;;;5014349;28;20187;-69
2022/11/07 01:11:59;;;;;;;9.90;3.23;;;;;;;;;;5021468;28;20543;-68
2022/11/07 01:14:25;;;;;;;5.47;2.90;;;;;;;;;;5025755;28;20279;-69
2022/11/07 01:16:50;;;;;;;9.67;3.10;;;;;;;;;;5029061;28;20240;-68
2022/11/07 01:19:15;;;;;;;9.47;3.37;;;;;;;;;;5027243;28;20193;-68
2022/11/07 01:21:41;;;;;;;7.47;3.03;;;;;;;;;;5027294;28;20240;-68
2022/11/07 01:24:07;;;;;;;7.67;2.77;;;;;;;;;;5031908;28;20684;-68
2022/11/07 01:26:32;;;;;;;5.50;3.17;;;;;;;;;;5032505;28;20178;-69
2022/11/07 01:28:58;;;;;;;11.43;3.93;;;;;;;;;;5031679;28;20205;-69
2022/11/07 01:31:23;;;;;;;5.40;3.00;;;;;;;;;;5030464;28;20630;-68
2022/11/07 01:33:48;;;;;;;8.63;2.93;;;;;;;;;;5024798;28;20186;-68
2022/11/07 01:36:15;;;;;;;4.00;2.30;;;;;;;;;;5026287;28;20186;-68
2022/11/07 01:38:42;;;;;;;6.43;2.67;;;;;;;;;;5021125;28;20181;-68
2022/11/07 01:41:20;;;;;;;4.90;2.43;;;;;;;;;;5028171;28;20186;-68
2022/11/07 01:43:45;;;;;;;7.10;2.83;;;;;;;;;;5032455;28;20243;-69
2022/11/07 01:46:11;;;;;;;7.90;2.70;;;;;;;;;;5033341;28;20559;-68
2022/11/07 01:48:36;;;;;;;8.03;2.73;;;;;;;;;;5026832;28;20642;-68
2022/11/07 01:51:02;;;;;;;6.77;2.03;;;;;;;;;;5028470;28;20533;-68
2022/11/07 01:53:27;;;;;;;8.80;2.67;;;;;;;;;;5024721;28;20189;-69
2022/11/07 01:55:53;;;;;;;5.33;2.63;;;;;;;;;;5032083;28;20174;-69
2022/11/07 01:58:18;;;;;;;6.83;2.77;;;;;;;;;;5026771;28;20674;-68
2022/11/07 02:00:43;;;;;;;8.50;2.33;;;;;;;;;;5032495;28;20201;-69
2022/11/07 02:03:11;;;;;;;8.00;2.70;;;;;;;;;;5031693;28;20270;-69
2022/11/07 02:05:38;;;;;;;9.80;2.50;;;;;;;;;;5030774;28;20206;-69
2022/11/07 02:08:05;;;;;;;4.40;2.90;;;;;;;;;;5030319;28;20535;-69
2022/11/07 02:10:31;;;;;;;8.80;2.40;;;;;;;;;;5027221;28;20186;-69
2022/11/07 02:12:57;;;;;;;8.60;2.63;;;;;;;;;;5023434;28;20608;-68
2022/11/07 02:15:25;;;;;;;12.23;3.23;;;;;;;;;;5024851;28;20578;-68
2022/11/07 02:17:50;;;;;;;5.10;2.20;;;;;;;;;;5028800;28;20206;-69
2022/11/07 02:20:15;;;;;;;5.57;2.37;;;;;;;;;;5031807;28;20219;-69
2022/11/07 02:22:48;;;;;;;5.03;2.57;;;;;;;;;;5031774;28;20228;-69
2022/11/07 02:25:15;;;;;;;6.03;2.90;;;;;;;;;;5011932;28;20293;-68
2022/11/07 02:27:41;;;;;;;6.83;3.03;;;;;;;;;;5031640;28;20644;-69
2022/11/07 02:30:08;;;;;;;7.53;2.83;;;;;;;;;;5031633;28;20249;-68
2022/11/07 02:32:33;;;;;;;8.20;2.90;;;;;;;;;;5031972;28;20177;-68
2022/11/07 02:35:00;;;;;;;5.00;2.70;;;;;;;;;;5028156;28;20203;-69
2022/11/07 02:37:37;;;;;;;9.83;2.97;;;;;;;;;;5029119;28;20189;-68
2022/11/07 02:40:04;;;;;;;5.07;2.63;;;;;;;;;;5031889;28;20174;-69
2022/11/07 02:42:42;;;;;;;9.57;2.80;;;;;;;;;;5030444;28;20173;-68
2022/11/07 02:45:09;;;;;;;9.97;3.17;;;;;;;;;;5028334;28;20202;-69
2022/11/07 02:47:34;;;;;;;8.03;2.97;;;;;;;;;;5031757;28;20191;-69
2022/11/07 02:49:59;;;;;;;5.20;3.13;;;;;;;;;;5030869;28;20262;-69
2022/11/07 02:52:24;;;;;;;8.83;3.37;;;;;;;;;;5031483;28;20439;-68
2022/11/07 02:54:49;;;;;;;8.23;3.27;;;;;;;;;;5031025;28;20186;-69
2022/11/07 02:57:15;;;;;;;7.47;3.17;;;;;;;;;;5030632;28;20423;-68
2022/11/07 02:59:40;;;;;;;7.87;2.87;;;;;;;;;;5031548;28;20174;-69
2022/11/07 03:02:05;;;;;;;6.73;3.03;;;;;;;;;;5012942;28;20198;-68
2022/11/07 03:04:30;;;;;;;6.43;3.00;;;;;;;;;;5031498;28;20210;-68
2022/11/07 03:06:55;;;;;;;6.70;3.20;;;;;;;;;;5031368;28;20288;-68
2022/11/07 03:09:21;;;;;;;8.17;3.17;;;;;;;;;;5030968;28;20182;-69
2022/11/07 03:11:46;;;;;;;4.60;2.90;;;;;;;;;;5030846;28;20167;-69
2022/11/07 03:14:11;;;;;;;8.33;4.23;;;;;;;;;;5030930;28;20638;-69
2022/11/07 03:16:36;;;;;;;6.57;2.80;;;;;;;;;;5031563;28;20184;-69
2022/11/07 03:19:01;;;;;;;10.53;3.47;;;;;;;;;;5031057;28;20178;-69
2022/11/07 03:21:26;;;;;;;7.60;3.33;;;;;;;;;;5030479;28;20566;-69
2022/11/07 03:23:52;;;;;;;6.27;3.30;;;;;;;;;;5031444;28;20569;-69
2022/11/07 03:26:17;;;;;;;9.97;3.13;;;;;;;;;;5029172;28;20228;-69
2022/11/07 03:28:42;;;;;;;7.73;2.93;;;;;;;;;;5031068;28;20202;-69
2022/11/07 03:31:07;;;;;;;13.27;4.03;;;;;;;;;;5030827;28;20197;-69
2022/11/07 03:36:11;;;;;;;10.63;3.00;;;;;;;;;;5030181;28;20697;-74
2022/11/07 03:38:36;;;;;;;7.27;2.87;;;;;;;;;;5028067;28;20187;-74
2022/11/07 03:41:01;;;;;;;9.90;3.10;;;;;;;;;;5021317;28;20224;-74
2022/11/07 03:43:27;;;;;;;9.37;2.70;;;;;;;;;;5029450;28;20695;-73
2022/11/07 03:45:52;;;;;;;9.43;3.23;;;;;;;;;;5011491;28;20197;-74
2022/11/07 03:48:17;;;;;;;7.23;2.90;;;;;;;;;;5025869;28;20791;-74
2022/11/07 03:50:42;;;;;;;8.93;3.03;;;;;;;;;;5030734;28;20462;-74
2022/11/07 03:53:07;;;;;;;7.80;2.70;;;;;;;;;;5030690;28;20177;-74
2022/11/07 03:55:33;;;;;;;6.47;2.57;;;;;;;;;;5027502;28;20514;-74
2022/11/07 03:57:58;;;;;;;10.47;2.80;;;;;;;;;;5017674;28;20175;-73
2022/11/07 04:00:23;;;;;;;5.13;2.30;;;;;;;;;;4996590;28;20174;-74
2022/11/07 04:02:48;;;;;;;6.57;2.63;;;;;;;;;;5025624;28;20558;-74
2022/11/07 04:05:13;;;;;;;7.87;3.13;;;;;;;;;;5026557;28;20281;-74
2022/11/07 04:07:39;;;;;;;8.03;2.20;;;;;;;;;;5018591;28;20222;-74
2022/11/07 04:10:04;;;;;;;7.23;2.50;;;;;;;;;;5031424;28;20222;-74
2022/11/07 04:17:59;;;;;;;7.13;3.20;;;;;;;;;;5023351;28;20259;-74
2022/11/07 04:20:24;;;;;;;9.37;3.57;;;;;;;;;;5023188;28;20182;-74
2022/11/07 04:22:49;;;;;;;6.63;2.90;;;;;;;;;;5019659;28;20186;-75
2022/11/07 04:25:15;;;;;;;10.63;3.63;;;;;;;;;;5025865;28;20868;-74
2022/11/07 04:27:43;;;;;;;7.13;2.53;;;;;;;;;;5006794;28;20203;-74
2022/11/07 04:30:28;;;;;;;9.07;2.77;;;;;;;;;;5020466;28;20190;-74
2022/11/07 04:32:54;;;;;;;9.90;3.50;;;;;;;;;;5022140;28;20212;-74
2022/11/07 04:35:20;;;;;;;9.73;3.23;;;;;;;;;;5025126;28;20601;-74
2022/11/07 04:37:46;;;;;;;12.90;3.10;;;;;;;;;;5017395;28;20894;-74
2022/11/07 04:40:12;;;;;;;16.87;4.63;;;;;;;;;;5017496;28;20213;-74
2022/11/07 04:42:37;;;;;;;10.53;3.07;;;;;;;;;;5016544;28;20189;-74
2022/11/07 04:45:03;;;;;;;12.20;3.23;;;;;;;;;;5026139;28;20232;-74
2022/11/07 04:47:28;;;;;;;8.37;2.73;;;;;;;;;;5024283;28;20206;-74
2022/11/07 04:49:53;;;;;;;10.40;4.40;;;;;;;;;;5025510;28;20650;-74
2022/11/07 04:52:18;;;;;;;11.87;3.90;;;;;;;;;;5029267;28;20182;-74
2022/11/07 04:54:43;;;;;;;11.03;2.90;;;;;;;;;;5027098;28;20198;-74
2022/11/07 04:57:09;;;;;;;9.80;3.67;;;;;;;;;;5022260;28;20628;-74
2022/11/07 04:59:34;;;;;;;8.57;3.17;;;;;;;;;;5027296;28;20182;-74
2022/11/07 05:02:00;;;;;;;5.30;2.53;;;;;;;;;;5025387;28;20189;-74
2022/11/07 05:04:25;;;;;;;16.00;4.72;;;;;;;;;;5028535;28;20280;-74
2022/11/07 05:06:50;;;;;;;10.23;3.67;;;;;;;;;;5019389;28;20262;-74
2022/11/07 05:09:16;;;;;;;10.95;3.42;;;;;;;;;;5024412;28;20272;-72
2022/11/07 05:11:42;;;;;;;8.40;4.00;;;;;;;;;;5022605;28;20177;-75
2022/11/07 05:14:07;;;;;;;6.90;2.70;;;;;;;;;;5019569;28;20194;-74
2022/11/07 05:16:33;;;;;;;13.03;2.60;;;;;;;;;;5026196;28;20177;-74
2022/11/07 05:18:58;;;;;;;7.95;2.67;;;;;;;;;;5029799;28;20608;-75
2022/11/07 05:21:23;;;;;;;8.77;2.90;;;;;;;;;;5026177;28;20207;-74
2022/11/07 05:23:48;;;;;;;12.60;3.50;;;;;;;;;;5018858;28;20224;-74
2022/11/07 05:26:14;;;;;;;7.60;3.53;;;;;;;;;;5025629;28;20193;-74
2022/11/07 05:28:39;;;;;;;13.00;3.20;;;;;;;;;;5021675;28;20213;-72
2022/11/07 05:31:05;;;;;;;13.30;3.30;;;;;;;;;;5028803;28;20248;-75
2022/11/07 05:33:31;;;;;;;8.07;2.60;;;;;;;;;;5023238;28;20182;-75
2022/11/07 05:35:56;;;;;;;13.50;3.50;;;;;;;;;;5018274;28;20213;-75
2022/11/07 05:38:21;;;;;;;7.97;3.05;;;;;;;;;;5024975;28;20181;-73
2022/11/07 05:40:46;;;;;;;12.80;4.13;;;;;;;;;;5022175;28;20439;-73
2022/11/07 05:43:13;;;;;;;10.80;3.17;;;;;;;;;;5025569;28;20178;-73
2022/11/07 05:45:39;;;;;;;7.53;3.30;;;;;;;;;;5017369;28;20273;-75
2022/11/07 05:48:05;;;;;;;11.83;3.60;;;;;;;;;;5025432;28;20634;-75
2022/11/07 05:50:31;;;;;;;9.20;3.35;;;;;;;;;;5019203;28;20179;-75
2022/11/07 05:52:56;;;;;;;10.70;3.00;;;;;;;;;;5017143;28;20193;-75
2022/11/07 05:55:22;;;;;;;14.23;4.30;;;;;;;;;;5028605;28;20205;-73
2022/11/07 05:57:47;;;;;;;12.97;3.67;;;;;;;;;;5025139;28;20205;-75
2022/11/07 06:00:13;;;;;;;17.33;3.67;;;;;;;;;;5014468;28;20241;-72
2022/11/07 06:02:38;;;;;;;9.40;2.83;;;;;;;;;;5019484;28;20186;-74
2022/11/07 06:05:04;;;;;;;18.02;4.28;;;;;;;;;;5021127;28;20199;-74
2022/11/07 06:07:32;;;;;;;12.67;2.70;;;;;;;;;;5018978;28;20203;-75
2022/11/07 06:09:57;;;;;;;13.40;4.33;;;;;;;;;;5021180;28;20201;-74
2022/11/07 06:12:22;;;;;;;10.60;3.13;;;;;;;;;;5027025;28;20179;-74
2022/11/07 06:14:47;;;;;;;8.13;3.10;;;;;;;;;;5024214;28;20222;-74
2022/11/07 06:17:13;;;;;;;9.80;3.40;;;;;;;;;;5023218;28;20174;-74
2022/11/07 06:19:38;;;;;;;9.53;3.07;;;;;;;;;;5013341;28;20199;-74
2022/11/07 06:22:03;;;;;;;9.50;3.10;;;;;;;;;;5027184;28;20197;-74
2022/11/07 06:24:28;;;;;;;12.77;3.10;;;;;;;;;;5020218;28;20263;-74
2022/11/07 06:26:53;;;;;;;11.98;3.50;;;;;;;;;;5025858;28;20178;-74
2022/11/07 06:29:18;;;;;;;10.82;3.42;;;;;;;;;;5025329;28;20221;-74
2022/11/07 06:31:44;;;;;;;12.95;3.33;;;;;;;;;;5021206;28;20542;-74
2022/11/07 06:34:09;;;;;;;10.52;3.50;;;;;;;;;;5027888;28;20217;-74
2022/11/07 06:36:34;;;;;;;7.47;3.20;;;;;;;;;;5033677;28;20499;-74
2022/11/07 06:38:59;;;;;;;6.57;3.17;;;;;;;;;;5028937;28;20280;-74
2022/11/07 06:41:25;;;;;;;11.13;3.25;;;;;;;;;;5027435;28;20183;-74
2022/11/07 06:43:50;;;;;;;13.25;3.33;;;;;;;;;;5027382;28;20565;-74
2022/11/07 06:46:18;;;;;;;10.30;3.22;;;;;;;;;;5032014;28;20202;-74
2022/11/07 06:48:43;;;;;;;9.90;3.35;;;;;;;;;;5031184;28;20664;-74
2022/11/07 06:51:09;;;;;;;16.60;3.90;;;;;;;;;;5030686;28;20232;-74
2022/11/07 06:53:34;;;;;;;11.45;3.10;;;;;;;;;;5028628;28;20572;-74
2022/11/07 06:56:00;;;;;;;4.78;2.17;;;;;;;;;;5029552;28;20281;-74
2022/11/07 06:58:25;;;;;;;5.78;2.40;;;;;;;;;;5028469;28;20257;-74
2022/11/07 07:00:50;;;;;;;19.00;4.82;;;;;;;;;;5028996;28;20189;-74
2022/11/07 07:03:15;;;;;;;8.55;3.17;;;;;;;;;;5020320;28;20178;-74
2022/11/07 07:05:41;;;;;;;9.50;3.47;;;;;;;;;;5032815;28;20194;-74
2022/11/07 07:08:06;;;;;;;12.95;3.67;;;;;;;;;;5033075;28;20197;-74
2022/11/07 07:10:40;;;;;;;7.47;3.00;;;;;;;;;;5028879;28;20253;-74
2022/11/07 07:13:05;;;;;;;8.82;2.95;;;;;;;;;;5020658;28;20269;-74
2022/11/07 07:15:31;;;;;;;12.77;3.63;;;;;;;;;;5028800;28;20277;-74
2022/11/07 07:18:00;;;;;;;9.90;3.22;;;;;;;;;;5028113;28;20529;-74
2022/11/07 07:20:25;;;;;;;11.88;3.58;;;;;;;;;;5025597;28;20273;-74
2022/11/07 07:22:50;;;;;;;9.50;3.90;;;;;;;;;;5024731;28;20485;-75
2022/11/07 07:25:15;;;;;;;8.10;3.10;;;;;;;;;;5032377;28;20206;-74
2022/11/07 07:27:41;;;;;;;14.30;2.78;;;;;;;;;;5030882;28;20214;-74
2022/11/07 07:30:06;;;;;;;11.63;2.83;;;;;;;;;;5010636;28;20269;-74
2022/11/07 07:32:34;;;;;;;13.70;3.50;;;;;;;;;;5026097;28;20175;-72
2022/11/07 07:34:59;;;;;;;11.43;3.10;;;;;;;;;;5030371;28;20263;-74
2022/11/07 07:37:24;;;;;;;8.98;2.85;;;;;;;;;;5029543;28;20183;-74
2022/11/07 07:39:49;;;;;;;13.70;3.00;;;;;;;;;;5027457;28;20190;-74
2022/11/07 07:42:14;;;;;;;8.80;2.67;;;;;;;;;;5023472;28;20178;-72
2022/11/07 07:44:40;;;;;;;6.28;2.55;;;;;;;;;;5021484;28;21124;-75
2022/11/07 07:47:05;;;;;;;10.45;3.78;;;;;;;;;;5021250;28;20316;-73
2022/11/07 07:49:30;;;;;;;9.15;2.50;;;;;;;;;;5023162;28;20196;-75
2022/11/07 07:51:55;;;;;;;10.07;2.58;;;;;;;;;;5024862;28;20191;-74
2022/11/07 07:54:20;;;;;;;9.20;2.83;;;;;;;;;;5025665;28;20194;-74
2022/11/07 07:56:45;;;;;;;11.90;3.42;;;;;;;;;;5028893;28;20170;-74
2022/11/07 07:59:11;;;;;;;10.50;3.00;;;;;;;;;;5024929;28;20181;-74
2022/11/07 08:01:36;;;;;;;8.35;3.25;;;;;;;;;;5029121;28;20268;-74
2022/11/07 08:04:01;;;;;;;10.77;3.25;;;;;;;;;;5023288;28;20281;-74
2022/11/07 08:06:26;;;;;;;8.07;2.47;;;;;;;;;;5021959;28;20194;-74
2022/11/07 08:08:52;;;;;;;18.13;2.97;;;;;;;;;;5028241;28;20648;-74
2022/11/07 08:11:17;;;;;;;11.98;3.70;;;;;;;;;;5022666;28;20671;-74
2022/11/07 08:13:42;;;;;;;9.60;3.83;;;;;;;;;;5023771;28;20181;-74
2022/11/07 08:16:08;;;;;;;8.13;2.65;;;;;;;;;;5025021;28;20746;-74
2022/11/07 08:18:35;;;;;;;10.10;2.13;;;;;;;;;;5029906;28;20261;-74
2022/11/07 08:21:01;;;;;;;13.07;2.70;;;;;;;;;;5019788;28;20183;-74
2022/11/07 08:23:26;;;;;;;16.15;3.58;;;;;;;;;;5001597;28;20200;-74
2022/11/07 08:25:52;;;;;;;9.23;2.75;;;;;;;;;;5026284;28;20198;-74
2022/11/07 08:28:18;;;;;;;10.20;2.60;;;;;;;;;;5028906;28;20226;-74
2022/11/07 08:30:43;;;;;;;10.52;2.53;;;;;;;;;;5024931;28;20210;-74
2022/11/07 08:33:08;;;;;;;10.30;3.30;;;;;;;;;;5021660;28;20228;-74
2022/11/07 08:35:34;;;;;;;4.25;2.10;;;;;;;;;;5030495;28;20214;-74
2022/11/07 08:37:59;;;;;;;15.80;2.90;;;;;;;;;;5031214;28;20663;-75
2022/11/07 08:40:24;;;;;;;10.07;2.55;;;;;;;;;;5027530;28;20222;-75
2022/11/07 08:42:50;;;;;;;6.22;2.20;;;;;;;;;;5023646;28;20572;-74
2022/11/07 08:45:15;;;;;;;8.05;2.78;;;;;;;;;;5013949;28;20202;-74
2022/11/07 08:47:40;;;;;;;12.20;2.33;;;;;;;;;;5023242;28;20194;-76
2022/11/07 08:50:05;;;;;;;10.88;2.55;;;;;;;;;;5029669;28;20269;-74
2022/11/07 08:52:31;;;;;;;14.45;3.70;;;;;;;;;;5023032;28;20655;-74
2022/11/07 08:54:56;;;;;;;6.65;3.38;;;;;;;;;;5029922;28;20684;-74
2022/11/07 08:57:21;;;;;;;6.72;2.28;;;;;;;;;;5026269;28;20205;-75
2022/11/07 08:59:46;;;;;;;10.45;2.28;;;;;;;;;;5022784;28;20203;-74
2022/11/07 09:02:12;;;;;;;10.93;2.50;;;;;;;;;;5029607;28;20171;-74
2022/11/07 09:04:37;;;;;;;7.60;2.55;;;;;;;;;;5017806;28;20209;-74
2022/11/07 09:07:02;;;;;;;11.18;2.75;;;;;;;;;;5021149;28;20649;-72
2022/11/07 09:09:28;;;;;;;8.88;2.40;;;;;;;;;;5013114;28;20210;-74
2022/11/07 09:11:53;;;;;;;9.13;2.80;;;;;;;;;;5029053;28;20210;-73
2022/11/07 09:14:19;;;;;;;7.28;2.00;;;;;;;;;;5030680;28;20202;-73
2022/11/07 09:16:44;;;;;;;8.85;3.25;;;;;;;;;;5027235;28;20182;-73
2022/11/07 09:19:09;;;;;;;4.88;2.53;;;;;;;;;;5023554;28;20274;-73
2022/11/07 09:21:34;;;;;;;6.35;3.40;;;;;;;;;;5028209;28;20185;-73
2022/11/07 09:23:59;;;;;;;14.30;3.10;;;;;;;;;;5026538;28;20277;-73
2022/11/07 09:26:25;;;;;;;8.55;2.53;;;;;;;;;;5028338;28;20177;-73
2022/11/07 09:28:50;;;;;;;5.55;2.10;;;;;;;;;;5011862;28;20199;-73
2022/11/07 09:31:15;;;;;;;7.80;2.42;;;;;;;;;;5021613;28;20221;-73
2022/11/07 09:33:40;;;;;;;12.40;3.40;;;;;;;;;;5025346;28;20540;-73
2022/11/07 09:36:06;;;;;;;12.18;3.22;;;;;;;;;;5025234;28;20671;-74
2022/11/07 09:38:31;;;;;;;7.22;2.75;;;;;;;;;;5028676;28;20174;-73
2022/11/07 09:41:09;;;;;;;10.60;2.78;;;;;;;;;;5022871;28;20183;-73
2022/11/07 09:43:49;;;;;;;9.98;3.55;;;;;;;;;;5032993;28;20182;-73
2022/11/07 09:46:18;;;;;;;11.15;2.90;;;;;;;;;;5032862;28;20304;-73
2022/11/07 09:48:46;;;;;;;7.70;2.38;;;;;;;;;;5023958;28;20228;-73
2022/11/07 09:51:23;;;;;;;6.75;2.50;;;;;;;;;;5022738;28;20712;-73
2022/11/07 09:53:51;;;;;;;9.30;3.03;;;;;;;;;;5015277;28;20320;-73
2022/11/07 09:56:16;;;;;;;8.25;2.70;;;;;;;;;;5011215;28;20202;-73
2022/11/07 09:58:41;;;;;;;14.52;3.22;;;;;;;;;;5019741;28;20268;-74
2022/11/07 10:01:11;;;;;;;12.57;3.70;;;;;;;;;;5030650;28;20182;-73
2022/11/07 10:03:37;;;;;;;15.88;3.42;;;;;;;;;;5025872;28;20443;-73
2022/11/07 10:06:20;;;;;;;9.77;2.60;;;;;;;;;;5029327;28;20186;-72
2022/11/07 10:09:00;;;;;;;9.25;3.50;;;;;;;;;;5023714;28;20613;-73
2022/11/07 10:11:26;;;;;;;9.75;3.38;;;;;;;;;;5025317;28;20174;-73
2022/11/07 10:14:10;;;;;;;6.70;2.80;;;;;;;;;;5028251;28;20534;-73
2022/11/07 10:16:35;;;;;;;10.93;3.22;;;;;;;;;;5022468;28;20918;-73
2022/11/07 10:19:06;;;;;;;9.02;3.30;;;;;;;;;;5026490;28;20321;-72
2022/11/07 10:21:50;;;;;;;7.47;2.97;;;;;;;;;;5017891;28;20178;-73
2022/11/07 10:24:26;;;;;;;8.77;2.75;;;;;;;;;;5027259;28;20691;-73
2022/11/07 10:26:52;;;;;;;7.88;2.30;;;;;;;;;;5031394;28;20261;-74
2022/11/07 10:29:18;;;;;;;8.98;2.78;;;;;;;;;;5030880;28;20277;-73
2022/11/07 10:31:51;;;;;;;7.30;2.70;;;;;;;;;;5032753;28;20651;-73
2022/11/07 10:34:22;;;;;;;10.15;2.85;;;;;;;;;;5029402;28;20218;-73
2022/11/07 10:36:47;;;;;;;5.60;2.45;;;;;;;;;;5026548;28;20721;-73
2022/11/07 10:39:17;;;;;;;7.68;2.65;;;;;;;;;;5015386;28;20178;-73
2022/11/07 10:41:57;;;;;;;5.95;2.75;;;;;;;;;;5026155;28;20653;-74
2022/11/07 10:44:23;;;;;;;9.95;3.40;;;;;;;;;;5022251;28;20609;-73
2022/11/07 10:46:49;;;;;;;12.88;3.33;;;;;;;;;;5033590;28;20170;-74
2022/11/07 10:49:23;;;;;;;12.07;2.92;;;;;;;;;;5022519;28;20214;-74
2022/11/07 10:51:49;;;;;;;12.73;2.78;;;;;;;;;;5021178;28;20867;-74
2022/11/07 10:54:21;;;;;;;15.38;4.20;;;;;;;;;;5025949;28;20238;-74
2022/11/07 10:56:47;;;;;;;9.02;2.78;;;;;;;;;;5023927;28;20644;-74
2022/11/07 10:59:20;;;;;;;9.25;3.25;;;;;;;;;;5029857;28;20679;-74
2022/11/07 11:01:49;;;;;;;11.38;3.25;;;;;;;;;;5009031;28;20549;-74
2022/11/07 11:04:28;;;;;;;10.68;3.17;;;;;;;;;;5032940;28;20679;-73
2022/11/07 11:07:00;;;;;;;7.57;3.58;;;;;;;;;;5029243;28;20194;-74
2022/11/07 11:09:29;;;;;;;11.32;2.72;;;;;;;;;;5030848;28;20301;-74
2022/11/07 11:11:55;;;;;;;6.70;2.90;;;;;;;;;;5027720;28;20201;-74
2022/11/07 11:14:20;;;;;;;8.52;3.00;;;;;;;;;;5027162;28;20622;-74
2022/11/07 11:16:48;;;;;;;7.15;2.50;;;;;;;;;;5031262;28;20678;-74
2022/11/07 11:19:33;;;;;;;8.88;2.50;;;;;;;;;;5032883;28;20174;-72
2022/11/07 11:21:59;;;;;;;10.13;2.85;;;;;;;;;;5032525;28;20178;-74
2022/11/07 11:24:24;;;;;;;6.22;3.08;;;;;;;;;;5024660;28;20244;-74
2022/11/07 11:26:50;;;;;;;9.23;2.70;;;;;;;;;;5030976;28;20314;-74
2022/11/07 11:29:28;;;;;;;9.38;3.05;;;;;;;;;;5023388;28;20674;-74
2022/11/07 11:31:54;;;;;;;15.95;4.65;;;;;;;;;;5024152;28;20179;-74
2022/11/07 11:34:38;;;;;;;9.70;3.10;;;;;;;;;;5032253;28;20206;-74
2022/11/07 11:37:07;;;;;;;11.93;4.13;;;;;;;;;;5029562;28;20190;-74
2022/11/07 11:39:39;;;;;;;6.90;2.90;;;;;;;;;;5029556;28;20541;-74
2022/11/07 11:42:04;;;;;;;9.50;4.43;;;;;;;;;;5023429;28;20193;-74
2022/11/07 11:44:30;;;;;;;7.97;4.15;;;;;;;;;;5010975;28;20574;-74
2022/11/07 11:47:13;;;;;;;12.50;4.07;;;;;;;;;;5021188;28;20183;-74
2022/11/07 11:49:38;;;;;;;7.80;3.35;;;;;;;;;;5027608;28;20232;-74
2022/11/07 11:52:10;;;;;;;9.70;3.47;;;;;;;;;;5023381;28;20245;-74
2022/11/07 11:54:35;;;;;;;12.10;3.95;;;;;;;;;;5020257;28;20447;-73
2022/11/07 11:57:03;;;;;;;9.50;2.85;;;;;;;;;;5018666;28;20182;-73
2022/11/07 11:59:28;;;;;;;9.20;2.85;;;;;;;;;;5032079;28;20190;-74
2022/11/07 12:01:53;;;;;;;6.80;2.87;;;;;;;;;;5026851;28;20177;-74
2022/11/07 12:04:25;;;;;;;9.37;2.80;;;;;;;;;;5027960;28;20430;-74
2022/11/07 12:06:54;;;;;;;7.93;3.13;;;;;;;;;;5025608;28;20995;-74
2022/11/07 12:09:31;;;;;;;8.55;2.38;;;;;;;;;;5030062;28;20245;-74
2022/11/07 12:12:20;;;;;;;15.60;2.92;;;;;;;;;;5019086;28;20561;-74
2022/11/07 12:14:59;;;;;;;11.10;2.85;;;;;;;;;;5020385;28;20199;-73
2022/11/07 12:17:40;;;;;;;10.07;2.72;;;;;;;;;;5028525;28;20178;-73
2022/11/07 12:20:05;;;;;;;8.82;3.05;;;;;;;;;;5022797;28;20170;-73
2022/11/07 12:22:40;;;;;;;8.88;3.22;;;;;;;;;;5008030;28;20174;-73
2022/11/07 12:25:08;;;;;;;10.05;2.83;;;;;;;;;;5030519;28;20276;-73
2022/11/07 12:27:47;;;;;;;8.40;2.60;;;;;;;;;;5028304;28;20186;-74
2022/11/07 12:30:31;;;;;;;9.20;2.60;;;;;;;;;;5027286;28;20170;-74
2022/11/07 12:33:19;;;;;;;8.02;2.20;;;;;;;;;;5028028;28;20170;-73
2022/11/07 12:35:47;;;;;;;8.75;2.22;;;;;;;;;;5023700;28;20213;-74
2022/11/07 12:38:15;;;;;;;7.15;2.63;;;;;;;;;;5024754;28;20191;-72
2022/11/07 12:40:40;;;;;;;7.07;2.25;;;;;;;;;;5027881;28;20174;-74
2022/11/07 12:43:24;;;;;;;11.87;2.30;;;;;;;;;;5032210;28;20175;-74
2022/11/07 12:45:52;;;;;;;12.20;3.63;;;;;;;;;;5027529;28;20427;-75
2022/11/07 12:48:33;;;;;;;7.78;1.85;;;;;;;;;;5029256;28;20244;-74
2022/11/07 12:50:58;;;;;;;17.20;3.05;;;;;;;;;;5013266;28;20663;-74
2022/11/07 12:53:59;;;;;;;8.00;2.37;;;;;;;;;;5017343;28;20206;-74
2022/11/07 12:56:27;;;;;;;9.98;2.70;;;;;;;;;;4916749;29;20423;-74
2022/11/07 12:58:53;;;;;;;8.57;2.05;;;;;;;;;;5011200;28;20609;-74
2022/11/07 13:01:22;;;;;;;11.80;2.35;;;;;;;;;;5029733;28;20244;-74
2022/11/07 13:03:53;;;;;;;8.70;3.17;;;;;;;;;;5027070;28;20683;-75
2022/11/07 13:06:18;;;;;;;6.28;3.22;;;;;;;;;;5029310;28;20201;-74
2022/11/07 13:09:01;;;;;;;8.52;2.83;;;;;;;;;;5020324;28;20194;-72
2022/11/07 13:11:36;;;;;;;5.78;2.17;;;;;;;;;;5027363;28;20192;-72
2022/11/07 13:14:04;;;;;;;10.50;3.65;;;;;;;;;;5026349;28;20201;-72
2022/11/07 13:16:30;;;;;;;7.07;2.60;;;;;;;;;;5018682;28;20281;-74
2022/11/07 13:19:06;;;;;;;8.88;3.17;;;;;;;;;;5027034;28;20178;-71
2022/11/07 13:21:38;;;;;;;8.40;2.17;;;;;;;;;;5022242;28;20182;-74
2022/11/07 13:24:04;;;;;;;8.68;2.22;;;;;;;;;;5031555;28;20202;-74
2022/11/07 13:26:29;;;;;;;7.60;2.25;;;;;;;;;;5023256;28;20197;-72
2022/11/07 13:28:59;;;;;;;11.68;2.97;;;;;;;;;;5033135;28;20213;-74
2022/11/07 13:31:31;;;;;;;10.13;2.30;;;;;;;;;;5028058;28;20186;-72
2022/11/07 13:34:08;;;;;;;5.88;2.30;;;;;;;;;;5027533;28;20185;-75
2022/11/07 13:36:34;;;;;;;8.93;2.85;;;;;;;;;;5033204;28;20602;-75
2022/11/07 13:38:59;;;;;;;6.38;2.10;;;;;;;;;;5027791;28;20178;-74
2022/11/07 13:41:24;;;;;;;9.95;2.42;;;;;;;;;;5032945;28;20182;-74
2022/11/07 13:43:56;;;;;;;12.05;1.95;;;;;;;;;;5029053;28;20175;-74
2022/11/07 13:46:21;;;;;;;10.85;2.30;;;;;;;;;;5034241;28;20175;-74
2022/11/07 13:48:53;;;;;;;10.70;2.90;;;;;;;;;;5031442;28;20202;-74
2022/11/07 13:51:18;;;;;;;6.45;2.05;;;;;;;;;;5024509;28;20175;-74
2022/11/07 13:53:51;;;;;;;7.70;2.63;;;;;;;;;;5033203;28;20666;-74
2022/11/07 13:56:29;;;;;;;7.80;2.58;;;;;;;;;;5022362;28;20423;-74
2022/11/07 13:58:54;;;;;;;12.10;2.83;;;;;;;;;;5021014;28;20206;-73
2022/11/07 14:01:20;;;;;;;9.60;2.75;;;;;;;;;;5021090;28;20608;-74
2022/11/07 14:03:45;;;;;;;12.18;3.30;;;;;;;;;;5032369;28;20175;-73
2022/11/07 14:06:14;;;;;;;7.72;2.20;;;;;;;;;;5023994;28;20653;-74
2022/11/07 14:08:42;;;;;;;8.75;3.22;;;;;;;;;;5031393;28;20213;-74
2022/11/07 14:11:18;;;;;;;6.38;2.08;;;;;;;;;;5022557;28;20182;-74
2022/11/07 14:13:44;;;;;;;10.82;2.65;;;;;;;;;;5021518;28;20174;-74
2022/11/07 14:16:13;;;;;;;10.25;2.35;;;;;;;;;;5022781;28;20210;-74
2022/11/07 14:18:53;;;;;;;10.40;2.47;;;;;;;;;;5023952;28;20178;-74
2022/11/07 14:21:24;;;;;;;9.50;2.60;;;;;;;;;;5027310;28;20670;-73
2022/11/07 14:23:49;;;;;;;8.13;2.85;;;;;;;;;;5033311;28;20201;-73
2022/11/07 14:26:19;;;;;;;5.70;1.95;;;;;;;;;;5021552;28;20175;-73
2022/11/07 14:28:44;;;;;;;11.63;3.45;;;;;;;;;;5036672;28;20198;-73
2022/11/07 14:31:39;;;;;;;12.63;3.50;;;;;;;;;;5025255;28;20170;-73
2022/11/07 14:34:18;;;;;;;6.95;2.47;;;;;;;;;;5004872;28;20229;-73
2022/11/07 14:37:12;;;;;;;8.57;2.60;;;;;;;;;;5026134;28;20182;-74
2022/11/07 14:39:37;;;;;;;9.32;3.08;;;;;;;;;;4989563;28;20283;-73
2022/11/07 14:42:03;;;;;;;15.05;3.53;;;;;;;;;;5021950;28;20175;-73
2022/11/07 14:44:36;;;;;;;8.02;2.28;;;;;;;;;;5024554;28;20209;-74
2022/11/07 14:47:02;;;;;;;8.98;2.72;;;;;;;;;;5033532;28;20249;-73
2022/11/07 14:49:30;;;;;;;9.55;3.22;;;;;;;;;;5014505;28;20220;-73
2022/11/07 14:51:56;;;;;;;9.10;3.13;;;;;;;;;;5028535;28;20644;-74